Time;durP1;ratioP1;P1;durP2;ratioP2;P2;SDS_P1;SDS_P2;PMS_P1;PMS_P2;Temp;Humidity;BMP_temperature;BMP_pressure;BME280_temperature;BME280_humidity;BME280_pressure;Samples;Min_cycle;Max_cycle;Signal;HPM_P1;HPM_P2
2021/01/23 00:01:32;;;;;;;1.80;1.70;;;;;;;20.65;39.45;99093.56;5074059;28;20625;-45
2021/01/23 00:03:58;;;;;;;1.93;1.80;;;;;;;20.65;39.68;99099.00;5074022;28;20183;-34
2021/01/23 00:06:24;;;;;;;1.77;1.67;;;;;;;20.64;39.47;99097.34;5073835;28;20218;-35
2021/01/23 00:08:50;;;;;;;2.20;2.00;;;;;;;20.62;39.65;99089.41;5073908;28;20187;-35
2021/01/23 00:11:16;;;;;;;1.73;1.63;;;;;;;20.61;39.54;99090.47;5073866;28;20222;-35
2021/01/23 00:13:43;;;;;;;1.67;1.57;;;;;;;20.60;39.48;99101.56;5073846;28;20200;-40
2021/01/23 00:16:09;;;;;;;2.03;1.90;;;;;;;20.60;39.41;99102.41;5072489;28;20252;-40
2021/01/23 00:18:35;;;;;;;1.90;1.73;;;;;;;20.59;39.49;99106.19;5073645;28;20207;-40
2021/01/23 00:21:01;;;;;;;1.70;1.60;;;;;;;20.59;39.63;99102.63;5073825;28;20210;-40
2021/01/23 00:23:27;;;;;;;1.80;1.70;;;;;;;20.59;39.79;99105.34;5073813;28;20195;-40
2021/01/23 00:25:53;;;;;;;2.00;1.80;;;;;;;20.60;39.68;99107.84;5073651;28;20215;-40
2021/01/23 00:28:19;;;;;;;2.10;1.90;;;;;;;20.59;39.62;99105.34;5072721;28;20183;-39
2021/01/23 00:30:45;;;;;;;1.87;1.77;;;;;;;20.57;39.89;99091.94;5056104;28;20190;-37
2021/01/23 00:33:11;;;;;;;1.60;1.50;;;;;;;20.59;39.77;99103.47;5073422;28;20252;-36
2021/01/23 00:35:37;;;;;;;1.70;1.60;;;;;;;20.60;39.66;99096.13;5073352;28;20203;-34
2021/01/23 00:38:04;;;;;;;1.57;1.47;;;;;;;20.61;39.85;99098.63;5073053;28;20246;-41
2021/01/23 00:40:31;;;;;;;1.60;1.50;;;;;;;20.61;39.85;99092.34;5073468;28;20184;-38
2021/01/23 00:42:57;;;;;;;1.70;1.60;;;;;;;20.62;39.87;99099.47;5071982;28;20196;-42
2021/01/23 00:45:23;;;;;;;1.63;1.53;;;;;;;20.63;39.93;99098.41;5072342;28;20278;-40
2021/01/23 00:47:49;;;;;;;1.60;1.50;;;;;;;20.64;40.03;99108.22;5073235;28;20187;-44
2021/01/23 00:50:15;;;;;;;1.80;1.70;;;;;;;20.65;40.01;99096.28;5073209;28;20663;-33
2021/01/23 00:52:41;;;;;;;1.60;1.50;;;;;;;20.65;39.78;99104.44;5073156;28;20188;-40
2021/01/23 00:55:08;;;;;;;1.60;1.50;;;;;;;20.66;39.72;99100.69;5073117;28;20183;-40
2021/01/23 00:57:34;;;;;;;1.90;1.80;;;;;;;20.66;39.86;99100.69;5072835;28;20262;-40
2021/01/23 01:00:00;;;;;;;1.70;1.60;;;;;;;20.66;39.65;99090.63;5073114;28;20652;-39
2021/01/23 01:02:26;;;;;;;1.70;1.57;;;;;;;20.67;39.71;99096.91;5073172;28;20244;-45
2021/01/23 01:04:52;;;;;;;1.73;1.63;;;;;;;20.66;39.65;99101.50;5072352;28;20700;-45
2021/01/23 01:07:18;;;;;;;1.80;1.70;;;;;;;20.66;39.63;99103.41;5073005;28;20204;-44
2021/01/23 01:09:44;;;;;;;1.70;1.60;;;;;;;20.65;39.44;99097.13;5073025;28;20292;-45
2021/01/23 01:12:10;;;;;;;1.83;1.73;;;;;;;20.65;39.55;99101.72;5072947;28;20545;-45
2021/01/23 01:14:36;;;;;;;1.70;1.60;;;;;;;20.64;39.46;99102.78;5072844;28;20187;-45
2021/01/23 01:17:02;;;;;;;1.60;1.50;;;;;;;20.63;39.47;99106.56;5072732;28;20215;-45
2021/01/23 01:19:28;;;;;;;1.63;1.53;;;;;;;20.61;39.60;99100.50;5072844;28;20694;-45
2021/01/23 01:21:54;;;;;;;1.67;1.57;;;;;;;20.59;39.52;99100.75;5072843;28;20179;-45
2021/01/23 01:24:20;;;;;;;1.80;1.70;;;;;;;20.57;39.47;99102.81;5072934;28;20280;-44
2021/01/23 01:26:46;;;;;;;1.63;1.53;;;;;;;20.57;39.19;99101.97;5072694;28;20682;-44
2021/01/23 01:29:13;;;;;;;1.70;1.60;;;;;;;20.56;39.52;99108.47;5072835;28;20179;-44
2021/01/23 01:31:39;;;;;;;1.60;1.50;;;;;;;20.56;39.34;99100.31;5073007;28;20191;-44
2021/01/23 01:34:05;;;;;;;1.60;1.50;;;;;;;20.53;39.38;99102.44;5071896;28;20190;-44
2021/01/23 01:36:31;;;;;;;1.67;1.57;;;;;;;20.53;39.61;99099.72;5072712;28;20214;-35
2021/01/23 01:38:57;;;;;;;1.53;1.43;;;;;;;20.53;39.50;99097.00;5072621;28;20301;-34
2021/01/23 01:41:23;;;;;;;1.63;1.53;;;;;;;20.53;39.74;99097.00;5071597;28;20195;-45
2021/01/23 01:43:49;;;;;;;1.63;1.53;;;;;;;20.56;39.82;99100.31;5072597;28;20731;-45
2021/01/23 01:46:15;;;;;;;1.50;1.40;;;;;;;20.56;39.81;99094.88;5072555;28;20204;-45
2021/01/23 01:48:42;;;;;;;1.60;1.50;;;;;;;20.54;39.81;99095.94;5071606;28;20511;-45
2021/01/23 01:51:08;;;;;;;1.60;1.50;;;;;;;20.56;39.85;99089.44;5071575;28;20215;-45
2021/01/23 01:53:38;;;;;;;1.60;1.50;;;;;;;20.57;39.71;99097.38;5071744;28;20191;-45
2021/01/23 01:56:05;;;;;;;1.77;1.67;;;;;;;20.58;39.93;99093.59;5072033;28;20238;-45
2021/01/23 01:58:31;;;;;;;1.70;1.60;;;;;;;20.59;39.83;99092.59;5075549;28;20276;-45
2021/01/23 02:00:57;;;;;;;1.47;1.37;;;;;;;20.59;39.91;99092.59;5076478;28;20187;-45
2021/01/23 02:03:38;;;;;;;1.70;1.60;;;;;;;20.61;39.72;99093.19;5059051;28;20573;-45
2021/01/23 02:06:16;;;;;;;1.40;1.30;;;;;;;20.61;39.83;99089.63;5076334;28;20248;-45
2021/01/23 02:08:51;;;;;;;1.80;1.70;;;;;;;20.62;39.84;99091.31;5076253;28;20168;-34
2021/01/23 02:11:26;;;;;;;1.70;1.60;;;;;;;20.63;39.62;99090.25;5075411;28;20257;-45
2021/01/23 02:14:28;;;;;;;1.50;1.40;;;;;;;20.61;39.49;99085.03;5075241;28;20247;-45
2021/01/23 02:16:54;;;;;;;1.50;1.40;;;;;;;20.59;39.66;99100.75;5063662;28;20313;-45
2021/01/23 02:19:51;;;;;;;1.60;1.50;;;;;;;20.60;39.46;99090.69;5075195;28;20298;-45
2021/01/23 02:22:28;;;;;;;1.57;1.50;;;;;;;20.57;39.45;99091.09;5074408;28;20192;-38
2021/01/23 02:24:54;;;;;;;1.60;1.50;;;;;;;20.53;39.30;99097.00;5067646;28;20269;-34
2021/01/23 02:27:35;;;;;;;1.43;1.33;;;;;;;20.54;39.31;99087.78;5075709;28;20214;-36
2021/01/23 02:30:03;;;;;;;1.70;1.60;;;;;;;20.51;39.41;99096.38;5075856;28;20630;-34
2021/01/23 02:32:31;;;;;;;1.50;1.40;;;;;;;20.51;39.32;99101.81;5049806;28;20248;-45
2021/01/23 02:34:58;;;;;;;1.57;1.47;;;;;;;20.50;39.58;99099.31;5058122;28;20617;-35
2021/01/23 02:37:24;;;;;;;1.70;1.60;;;;;;;20.48;39.48;99087.84;5067074;28;20223;-38
2021/01/23 02:39:52;;;;;;;1.60;1.50;;;;;;;20.48;39.67;99102.25;5075647;28;20601;-45
2021/01/23 02:42:18;;;;;;;1.80;1.70;;;;;;;20.47;39.71;99097.88;5074780;28;20184;-45
2021/01/23 02:44:44;;;;;;;1.40;1.30;;;;;;;20.46;39.77;99096.22;5075712;28;20206;-38
2021/01/23 02:47:10;;;;;;;1.50;1.40;;;;;;;20.47;39.63;99097.88;5075642;28;20290;-44
2021/01/23 02:49:36;;;;;;;1.60;1.50;;;;;;;20.47;39.77;99097.88;5075636;28;20718;-38
2021/01/23 02:52:12;;;;;;;1.70;1.60;;;;;;;20.49;39.66;99084.91;5075535;28;20211;-38
2021/01/23 02:54:50;;;;;;;1.27;1.27;;;;;;;20.51;39.74;99084.69;5075503;28;20190;-44
2021/01/23 02:57:18;;;;;;;1.60;1.50;;;;;;;20.50;39.77;99086.56;5075383;28;20222;-44
2021/01/23 02:59:44;;;;;;;1.63;1.60;;;;;;;20.51;39.87;99090.13;5075494;28;20218;-42
2021/01/23 03:02:11;;;;;;;1.50;1.40;;;;;;;20.53;39.97;99091.56;5074220;28;20191;-41
2021/01/23 03:04:39;;;;;;;1.50;1.40;;;;;;;20.54;39.75;99082.34;5065848;28;20245;-33
2021/01/23 03:07:05;;;;;;;1.30;1.30;;;;;;;20.56;39.92;99084.00;5074439;28;20412;-44
2021/01/23 03:09:31;;;;;;;1.40;1.30;;;;;;;20.55;39.65;99088.63;5073419;28;20179;-44
2021/01/23 03:11:57;;;;;;;1.50;1.40;;;;;;;20.57;39.88;99080.25;5075285;28;20275;-44
2021/01/23 03:14:23;;;;;;;1.43;1.33;;;;;;;20.57;39.80;99080.25;5074276;28;20249;-45
2021/01/23 03:16:53;;;;;;;1.40;1.30;;;;;;;20.59;39.80;99089.03;5074953;28;20314;-45
2021/01/23 03:19:20;;;;;;;1.40;1.30;;;;;;;20.56;39.69;99078.56;5074844;28;20200;-44
2021/01/23 03:21:49;;;;;;;1.53;1.43;;;;;;;20.58;39.70;99081.91;5073939;28;20194;-49
2021/01/23 03:24:16;;;;;;;1.30;1.30;;;;;;;20.58;39.64;99081.91;5075083;28;20260;-45
2021/01/23 03:26:42;;;;;;;1.60;1.50;;;;;;;20.56;39.61;99081.28;5074684;28;20212;-42
2021/01/23 03:29:08;;;;;;;1.50;1.43;;;;;;;20.55;39.45;99069.59;5074801;28;20203;-40
2021/01/23 03:31:34;;;;;;;1.27;1.27;;;;;;;20.54;39.43;99076.91;5074780;28;20229;-38
2021/01/23 03:34:01;;;;;;;1.40;1.30;;;;;;;20.52;39.56;99073.59;5073663;28;20223;-40
2021/01/23 03:36:27;;;;;;;1.50;1.40;;;;;;;20.52;39.33;99070.88;5074710;28;20204;-40
2021/01/23 03:38:53;;;;;;;1.50;1.40;;;;;;;20.51;39.36;99069.19;5074711;28;20222;-40
2021/01/23 03:41:19;;;;;;;1.53;1.43;;;;;;;20.50;39.22;99064.00;5074609;28;20199;-44
2021/01/23 03:43:46;;;;;;;1.30;1.30;;;;;;;20.50;39.29;99061.28;5074519;28;20582;-34
2021/01/23 03:46:12;;;;;;;1.27;1.27;;;;;;;20.48;39.29;99061.50;5074385;28;20207;-35
2021/01/23 03:48:38;;;;;;;1.30;1.30;;;;;;;20.47;39.50;99062.53;5074341;28;20259;-36
2021/01/23 03:51:04;;;;;;;1.50;1.40;;;;;;;20.47;39.72;99054.41;5074368;28;20257;-45
2021/01/23 03:53:31;;;;;;;1.30;1.30;;;;;;;20.48;39.45;99050.63;5074346;28;20710;-44
2021/01/23 03:55:57;;;;;;;1.40;1.30;;;;;;;20.48;39.80;99050.63;5074118;28;20211;-45
2021/01/23 03:58:23;;;;;;;1.37;1.27;;;;;;;20.48;39.54;99050.63;5074196;28;20215;-39
2021/01/23 04:00:49;;;;;;;1.43;1.33;;;;;;;20.50;39.87;99053.13;5074259;28;20188;-38
2021/01/23 04:03:15;;;;;;;1.40;1.30;;;;;;;20.50;39.75;99056.66;5074116;28;20222;-40
2021/01/23 04:05:41;;;;;;;1.20;1.20;;;;;;;20.50;39.58;99045.78;5070948;28;20589;-45
2021/01/23 04:08:07;;;;;;;1.27;1.17;;;;;;;20.53;39.94;99037.19;5068534;28;20278;-40
2021/01/23 04:10:34;;;;;;;1.50;1.40;;;;;;;20.53;39.91;99042.63;5073991;28;20237;-45
2021/01/23 04:13:00;;;;;;;1.50;1.40;;;;;;;20.53;39.62;99034.47;5073873;28;20188;-45
2021/01/23 04:15:26;;;;;;;1.10;1.10;;;;;;;20.54;39.82;99030.69;5073551;28;20321;-36
2021/01/23 04:17:52;;;;;;;1.10;1.10;;;;;;;20.56;39.71;99041.34;5073706;28;20222;-33
2021/01/23 04:20:19;;;;;;;1.43;1.33;;;;;;;20.56;39.55;99035.06;5073660;28;20557;-45
2021/01/23 04:22:46;;;;;;;1.47;1.37;;;;;;;20.54;39.72;99027.97;5073834;28;20237;-44
2021/01/23 04:25:12;;;;;;;1.20;1.20;;;;;;;20.55;39.54;99028.81;5073607;28;20249;-45
2021/01/23 04:27:38;;;;;;;1.27;1.20;;;;;;;20.55;39.43;99023.38;5073632;28;20196;-35
2021/01/23 04:30:05;;;;;;;1.00;1.00;;;;;;;20.52;39.32;99027.38;5073641;28;20182;-33
2021/01/23 04:32:31;;;;;;;1.10;1.10;;;;;;;20.53;39.36;99030.91;5072668;28;20707;-45
2021/01/23 04:34:57;;;;;;;1.20;1.20;;;;;;;20.52;39.57;99029.25;5073530;28;20181;-40
2021/01/23 04:37:23;;;;;;;1.27;1.20;;;;;;;20.49;39.30;99025.09;5073411;28;20298;-45
2021/01/23 04:39:49;;;;;;;1.10;1.03;;;;;;;20.49;39.41;99035.97;5073315;28;20277;-45
2021/01/23 04:42:16;;;;;;;1.40;1.30;;;;;;;20.48;39.52;99036.19;5073399;28;20534;-45
2021/01/23 04:44:42;;;;;;;1.00;1.00;;;;;;;20.47;39.53;99027.22;5072288;28;20180;-45
2021/01/23 04:47:08;;;;;;;1.00;1.00;;;;;;;20.47;39.50;99027.22;5073141;28;20286;-45
2021/01/23 04:49:34;;;;;;;1.13;1.13;;;;;;;20.46;39.56;99025.56;5072358;28;20263;-45
2021/01/23 04:52:03;;;;;;;1.17;1.17;;;;;;;20.47;39.52;99024.50;5073425;28;20188;-45
2021/01/23 04:54:30;;;;;;;1.13;1.13;;;;;;;20.46;39.49;99031.00;5073366;28;20197;-45
2021/01/23 04:56:56;;;;;;;1.00;1.00;;;;;;;20.46;39.67;99020.13;5073091;28;20204;-46
2021/01/23 04:59:22;;;;;;;1.20;1.10;;;;;;;20.46;39.58;99025.56;5073042;28;20261;-43
2021/01/23 05:02:20;;;;;;;1.30;1.20;;;;;;;20.49;39.77;99022.38;5073041;28;20525;-44
2021/01/23 05:04:46;;;;;;;1.00;1.00;;;;;;;20.48;39.85;99007.13;5072912;28;20240;-45
2021/01/23 05:07:29;;;;;;;0.90;0.90;;;;;;;20.49;39.66;99008.78;5072905;28;20267;-35
2021/01/23 05:09:56;;;;;;;1.10;1.00;;;;;;;20.50;39.77;99007.75;5072071;28;20621;-45
2021/01/23 05:12:36;;;;;;;1.10;1.10;;;;;;;20.53;39.77;99009.19;5072916;28;20566;-45
2021/01/23 05:15:04;;;;;;;1.20;1.10;;;;;;;20.51;39.69;99003.97;5072997;28;20175;-45
2021/01/23 05:17:30;;;;;;;1.10;1.10;;;;;;;20.50;39.58;99002.31;5071649;28;20238;-45
2021/01/23 05:19:56;;;;;;;0.90;0.90;;;;;;;20.51;39.64;98994.97;5072008;28;20535;-45
2021/01/23 05:22:22;;;;;;;1.10;1.00;;;;;;;20.51;39.65;98994.97;5072834;28;20271;-36
2021/01/23 05:24:52;;;;;;;1.20;1.10;;;;;;;20.52;39.42;98997.47;5072805;28;20180;-34
2021/01/23 05:27:18;;;;;;;0.97;0.97;;;;;;;20.50;39.51;98986.00;5072689;28;20214;-40
2021/01/23 05:29:54;;;;;;;1.00;1.00;;;;;;;20.52;39.54;98980.34;5071653;28;20530;-42
2021/01/23 05:32:21;;;;;;;1.23;1.03;;;;;;;20.48;39.50;98990.81;5072186;28;20180;-45
2021/01/23 05:34:47;;;;;;;0.93;0.93;;;;;;;20.47;39.33;98991.88;5072633;28;20184;-46
2021/01/23 05:37:29;;;;;;;0.90;0.90;;;;;;;20.46;39.24;98984.78;5072567;28;20632;-45
2021/01/23 05:39:55;;;;;;;1.03;1.03;;;;;;;20.45;39.25;98985.84;5071922;28;20188;-33
2021/01/23 05:42:21;;;;;;;1.00;1.00;;;;;;;20.45;39.27;98991.28;5072685;28;20266;-36
2021/01/23 05:45:10;;;;;;;1.00;1.00;;;;;;;20.47;39.27;98985.63;5072697;28;20191;-35
2021/01/23 05:47:36;;;;;;;1.20;1.10;;;;;;;20.44;39.38;98986.91;5071610;28;20211;-45
2021/01/23 05:50:03;;;;;;;1.10;1.10;;;;;;;20.44;39.44;99000.47;5072629;28;20267;-45
2021/01/23 05:52:29;;;;;;;0.90;0.90;;;;;;;20.42;39.66;98996.31;5072497;28;20188;-44
2021/01/23 05:54:56;;;;;;;1.00;1.00;;;;;;;20.43;39.44;98998.00;5072470;28;20244;-44
2021/01/23 05:57:22;;;;;;;1.20;1.10;;;;;;;20.43;39.40;98993.38;5072324;28;20237;-34
2021/01/23 05:59:48;;;;;;;0.90;0.90;;;;;;;20.43;39.68;98993.38;5071323;28;20272;-41
2021/01/23 06:02:15;;;;;;;0.90;0.90;;;;;;;20.44;39.48;98995.06;5071451;28;20652;-40
2021/01/23 06:04:42;;;;;;;0.90;0.90;;;;;;;20.43;39.83;98998.00;5071462;28;20187;-45
2021/01/23 06:07:09;;;;;;;0.90;0.90;;;;;;;20.45;39.78;98996.72;5071428;28;20231;-44
2021/01/23 06:09:39;;;;;;;0.93;0.93;;;;;;;20.47;39.67;99005.47;5071537;28;20589;-40
2021/01/23 06:12:14;;;;;;;0.90;0.90;;;;;;;20.47;39.52;99001.91;5072409;28;20212;-43
2021/01/23 06:14:40;;;;;;;0.90;0.90;;;;;;;20.47;39.82;99016.34;5072354;28;20277;-44
2021/01/23 06:17:06;;;;;;;0.90;0.90;;;;;;;20.48;39.78;99007.13;5071995;28;20223;-33
2021/01/23 06:19:32;;;;;;;0.90;0.90;;;;;;;20.49;39.69;99014.22;5072099;28;20298;-44
2021/01/23 06:21:58;;;;;;;0.90;0.90;;;;;;;20.50;39.66;99015.91;5072151;28;20259;-44
2021/01/23 06:24:30;;;;;;;0.80;0.80;;;;;;;20.51;39.38;99014.00;5072092;28;20292;-44
2021/01/23 06:26:57;;;;;;;1.00;0.80;;;;;;;20.50;39.41;99013.19;5071962;28;20218;-45
2021/01/23 06:29:34;;;;;;;1.00;1.00;;;;;;;20.51;39.52;99016.72;5072175;28;20186;-45
2021/01/23 06:32:21;;;;;;;0.93;0.93;;;;;;;20.50;39.30;99010.47;5072227;28;20261;-44
2021/01/23 06:34:54;;;;;;;1.03;0.93;;;;;;;20.49;39.25;99014.22;5071517;28;20238;-44
2021/01/23 06:37:24;;;;;;;0.93;0.93;;;;;;;20.46;39.36;99005.69;5072469;28;20211;-44
2021/01/23 06:39:56;;;;;;;0.80;0.80;;;;;;;20.45;39.23;99009.47;5072233;28;20226;-45
2021/01/23 06:42:22;;;;;;;0.80;0.80;;;;;;;20.42;39.14;99008.03;5071999;28;20184;-40
2021/01/23 06:44:48;;;;;;;0.90;0.90;;;;;;;20.41;39.36;99006.38;5074030;28;20208;-37
2021/01/23 06:47:14;;;;;;;0.97;0.97;;;;;;;20.41;39.18;99006.38;5075442;28;20211;-39
2021/01/23 06:49:41;;;;;;;1.00;1.00;;;;;;;20.41;39.44;99006.38;5075408;28;20271;-36
2021/01/23 06:52:07;;;;;;;0.80;0.80;;;;;;;20.40;39.45;99010.13;5075464;28;20672;-33
2021/01/23 06:54:34;;;;;;;0.83;0.83;;;;;;;20.40;39.47;99010.13;5075606;28;20188;-35
2021/01/23 06:57:00;;;;;;;0.70;0.70;;;;;;;20.40;39.33;99014.72;5074281;28;20581;-34
2021/01/23 06:59:31;;;;;;;0.80;0.80;;;;;;;20.40;39.41;99004.72;5074324;28;20653;-39
2021/01/23 07:02:04;;;;;;;0.80;0.80;;;;;;;20.42;39.65;99013.47;5075403;28;20191;-42
2021/01/23 07:04:37;;;;;;;0.97;0.87;;;;;;;20.41;39.56;99014.53;5075288;28;20195;-40
2021/01/23 07:07:07;;;;;;;1.00;1.00;;;;;;;20.42;39.65;99007.19;5075293;28;20573;-44
2021/01/23 07:09:49;;;;;;;0.97;0.97;;;;;;;20.44;39.53;99022.22;5075090;28;20180;-45
2021/01/23 07:12:40;;;;;;;1.00;0.90;;;;;;;20.45;39.68;99018.44;5075083;28;20580;-45
2021/01/23 07:15:22;;;;;;;0.80;0.80;;;;;;;20.46;39.74;99020.13;5075279;28;20187;-46
2021/01/23 07:17:49;;;;;;;0.90;0.90;;;;;;;20.45;39.87;99018.44;5074866;28;20191;-46
2021/01/23 07:20:19;;;;;;;1.10;0.90;;;;;;;20.46;39.75;99011.13;5073851;28;20735;-40
2021/01/23 07:22:46;;;;;;;0.93;0.93;;;;;;;20.46;39.64;99014.69;5069656;28;20575;-44
2021/01/23 07:25:14;;;;;;;0.80;0.80;;;;;;;20.46;39.53;99020.13;5074421;28;20202;-44
2021/01/23 07:27:40;;;;;;;0.80;0.80;;;;;;;20.46;39.51;99025.56;5073813;28;20214;-32
2021/01/23 07:30:13;;;;;;;1.10;1.00;;;;;;;20.48;39.57;99018.00;5074560;28;20195;-35
2021/01/23 07:32:40;;;;;;;0.80;0.80;;;;;;;20.48;39.41;99022.59;5074648;28;20218;-33
2021/01/23 07:35:07;;;;;;;1.10;0.90;;;;;;;20.47;39.45;99032.66;5074468;28;20627;-34
2021/01/23 07:37:43;;;;;;;0.83;0.77;;;;;;;20.47;39.31;99021.78;5073569;28;20687;-44
2021/01/23 07:40:11;;;;;;;0.90;0.90;;;;;;;20.46;39.49;99020.13;5069217;28;20195;-44
2021/01/23 07:42:37;;;;;;;0.90;0.90;;;;;;;20.44;39.35;99016.78;5074236;28;20194;-44
2021/01/23 07:45:08;;;;;;;0.77;0.77;;;;;;;20.45;39.42;99029.31;5073201;28;20538;-43
2021/01/23 07:47:34;;;;;;;0.90;0.90;;;;;;;20.44;39.36;99024.94;5073260;28;20618;-43
2021/01/23 07:50:18;;;;;;;0.80;0.80;;;;;;;20.43;39.09;99031.44;5073323;28;20204;-33
2021/01/23 07:52:44;;;;;;;0.80;0.80;;;;;;;20.40;39.07;99023.72;5073741;28;20190;-44
2021/01/23 07:55:10;;;;;;;1.00;0.90;;;;;;;20.41;39.34;99024.56;5073451;28;20569;-44
2021/01/23 07:57:36;;;;;;;0.80;0.80;;;;;;;20.41;39.42;99021.84;5056148;28;20298;-46
2021/01/23 08:00:07;;;;;;;0.67;0.67;;;;;;;20.39;39.46;99019.31;5073156;28;20176;-44
2021/01/23 08:02:50;;;;;;;1.00;0.90;;;;;;;20.41;39.30;99022.69;5072858;28;20217;-45
2021/01/23 08:05:16;;;;;;;0.80;0.80;;;;;;;20.40;39.57;99025.59;5073867;28;20281;-45
2021/01/23 08:07:42;;;;;;;0.80;0.80;;;;;;;20.39;39.64;99023.91;5072668;28;20187;-44
2021/01/23 08:10:18;;;;;;;0.80;0.80;;;;;;;20.39;39.49;99018.47;5073683;28;20188;-45
2021/01/23 08:13:01;;;;;;;0.63;0.63;;;;;;;20.42;39.64;99028.94;5073637;28;20206;-44
2021/01/23 08:15:28;;;;;;;0.70;0.70;;;;;;;20.40;39.63;99026.44;5073566;28;20186;-46
2021/01/23 08:17:55;;;;;;;0.70;0.70;;;;;;;20.41;39.65;99033.53;5073780;28;20204;-44
2021/01/23 08:20:35;;;;;;;0.97;0.90;;;;;;;20.42;39.54;99018.91;5073638;28;20222;-45
2021/01/23 08:23:14;;;;;;;0.90;0.90;;;;;;;20.44;39.48;99018.69;5073588;28;20833;-45
2021/01/23 08:25:55;;;;;;;0.90;0.90;;;;;;;20.45;39.64;99025.78;5073262;28;20219;-37
2021/01/23 08:28:40;;;;;;;0.73;0.70;;;;;;;20.44;39.61;99016.78;5073820;28;20574;-42
2021/01/23 08:31:13;;;;;;;0.80;0.80;;;;;;;20.45;39.50;99021.16;5070273;28;20184;-41
2021/01/23 08:33:39;;;;;;;3.77;2.90;;;;;;;20.41;37.91;99019.97;5066514;28;20194;-37
2021/01/23 08:36:05;;;;;;;5.67;4.67;;;;;;;20.34;35.07;99029.16;5064615;28;20538;-42
2021/01/23 08:38:31;;;;;;;10.07;5.30;;;;;;;20.17;34.55;99032.44;5064407;28;20541;-42
2021/01/23 08:40:57;;;;;;;5.37;4.80;;;;;;;20.02;34.00;99028.34;5072300;28;20187;-32
2021/01/23 08:43:23;;;;;;;5.33;4.67;;;;;;;19.88;34.33;99031.16;5073375;28;20278;-34
2021/01/23 08:45:50;;;;;;;4.90;4.47;;;;;;;19.73;35.12;99032.50;5068958;28;20211;-38
2021/01/23 08:48:16;;;;;;;6.83;3.97;;;;;;;19.65;36.11;99036.31;5063775;28;20180;-37
2021/01/23 08:50:42;;;;;;;5.13;4.00;;;;;;;19.62;36.61;99023.13;5069827;28;20294;-31
2021/01/23 08:53:08;;;;;;;5.13;3.60;;;;;;;19.63;36.73;99024.81;5067955;28;20659;-31
2021/01/23 08:55:34;;;;;;;4.53;3.23;;;;;;;19.67;36.96;99026.06;5064590;28;20184;-42
2021/01/23 08:58:00;;;;;;;4.43;3.00;;;;;;;19.72;37.07;99026.22;5055271;28;20210;-38
2021/01/23 09:00:26;;;;;;;3.87;2.70;;;;;;;19.78;37.24;99019.09;5072911;28;20568;-37
2021/01/23 09:02:52;;;;;;;3.33;3.00;;;;;;;19.82;37.90;99025.75;5068727;28;20203;-32
2021/01/23 09:05:19;;;;;;;3.10;2.77;;;;;;;19.87;38.10;99017.78;5068641;28;20195;-33
2021/01/23 09:07:45;;;;;;;3.40;2.70;;;;;;;19.92;38.15;99023.41;5072588;28;20206;-33
2021/01/23 09:10:11;;;;;;;3.13;2.40;;;;;;;19.99;38.29;99017.94;5073001;28;20183;-34
2021/01/23 09:12:38;;;;;;;2.73;2.50;;;;;;;20.05;38.34;99017.03;5070756;28;20256;-35
2021/01/23 09:15:05;;;;;;;3.97;2.50;;;;;;;20.11;38.36;99018.88;5065725;28;20187;-34
2021/01/23 09:17:32;;;;;;;2.27;2.00;;;;;;;20.18;38.55;99016.97;5072322;28;20219;-43
2021/01/23 09:19:58;;;;;;;2.57;1.93;;;;;;;20.25;38.57;99017.75;5072634;28;20212;-42
2021/01/23 09:22:24;;;;;;;3.43;2.27;;;;;;;20.31;38.35;99008.69;5072902;28;20573;-40
2021/01/23 09:24:50;;;;;;;1.87;1.77;;;;;;;20.40;38.62;99006.56;5072868;28;20180;-37
2021/01/23 09:27:16;;;;;;;2.80;1.80;;;;;;;20.46;38.34;99003.81;5072634;28;20600;-35
2021/01/23 09:29:42;;;;;;;2.30;1.77;;;;;;;20.53;38.21;99006.47;5072548;28;20204;-44
2021/01/23 09:32:08;;;;;;;2.40;1.70;;;;;;;20.60;38.29;99009.97;5072682;28;20183;-41
2021/01/23 09:34:35;;;;;;;3.03;2.10;;;;;;;20.65;38.30;99004.69;5070837;28;20215;-39
2021/01/23 09:37:04;;;;;;;1.80;1.70;;;;;;;20.71;38.40;99011.94;5066093;28;20649;-36
2021/01/23 09:39:31;;;;;;;2.60;1.80;;;;;;;20.76;38.18;99011.28;5064455;28;20211;-46
2021/01/23 09:42:00;;;;;;;2.17;1.90;;;;;;;20.80;37.89;99009.75;5072678;28;20199;-46
2021/01/23 09:44:27;;;;;;;1.90;1.80;;;;;;;20.83;38.24;99015.59;5064179;28;20191;-33
2021/01/23 09:46:53;;;;;;;1.60;1.47;;;;;;;20.85;37.99;99012.66;5072309;28;20199;-34
2021/01/23 09:49:20;;;;;;;2.33;1.57;;;;;;;20.89;38.01;99013.88;5063753;28;20532;-40
2021/01/23 09:51:46;;;;;;;2.03;1.77;;;;;;;20.90;37.92;99010.09;5072227;28;20391;-42
2021/01/23 09:54:12;;;;;;;2.93;1.90;;;;;;;20.91;37.64;99011.75;5072129;28;20692;-43
2021/01/23 09:56:38;;;;;;;1.80;1.70;;;;;;;20.92;37.70;99018.84;5072410;28;20208;-37
2021/01/23 09:59:04;;;;;;;1.60;1.50;;;;;;;20.92;37.83;99010.69;5072345;28;20199;-37
2021/01/23 10:01:30;;;;;;;2.33;1.70;;;;;;;20.92;37.50;99013.41;5072348;28;20580;-35
2021/01/23 10:03:57;;;;;;;2.03;1.80;;;;;;;20.91;37.58;99009.03;5072510;28;20211;-43
2021/01/23 10:06:29;;;;;;;1.73;1.60;;;;;;;20.93;37.78;99015.06;5072374;28;20207;-44
2021/01/23 10:08:55;;;;;;;2.23;1.50;;;;;;;20.91;37.47;99000.03;5071510;28;20172;-38
2021/01/23 10:11:22;;;;;;;1.60;1.50;;;;;;;20.90;37.64;99011.97;5072429;28;20180;-42
2021/01/23 10:13:48;;;;;;;2.10;1.50;;;;;;;20.88;37.48;98998.59;5072009;28;20852;-44
2021/01/23 10:16:15;;;;;;;2.63;1.60;;;;;;;20.86;37.48;99003.44;5071894;28;20261;-44
2021/01/23 10:18:41;;;;;;;1.60;1.50;;;;;;;20.86;37.85;99003.44;5075122;28;20207;-44
2021/01/23 10:21:07;;;;;;;1.60;1.50;;;;;;;20.85;37.70;99001.78;5075935;28;20201;-39
2021/01/23 10:23:33;;;;;;;2.37;1.60;;;;;;;20.84;37.71;98992.78;5076112;28;20573;-37
2021/01/23 10:25:59;;;;;;;1.60;1.30;;;;;;;20.83;37.82;98987.59;5076011;28;20200;-38
2021/01/23 10:28:26;;;;;;;1.70;1.60;;;;;;;20.83;38.23;98982.16;5074892;28;20186;-38
2021/01/23 10:30:52;;;;;;;7.47;3.37;;;;;;;20.82;38.37;98988.63;5076047;28;20248;-44
2021/01/23 10:33:18;;;;;;;9.40;3.60;;;;;;;20.79;38.48;98981.72;5066789;28;20196;-41
2021/01/23 10:35:44;;;;;;;11.17;5.20;;;;;;;20.77;38.59;98978.41;5075318;28;20222;-40
2021/01/23 10:38:11;;;;;;;12.63;5.03;;;;;;;20.77;38.48;98983.03;5075362;28;20207;-44
2021/01/23 10:40:37;;;;;;;13.13;4.83;;;;;;;20.76;38.76;98984.06;5074383;28;20199;-42
2021/01/23 10:43:03;;;;;;;10.07;5.53;;;;;;;20.74;38.76;98978.88;5075539;28;20517;-45
2021/01/23 10:45:29;;;;;;;12.10;4.90;;;;;;;20.73;38.70;98979.09;5075344;28;20336;-44
2021/01/23 10:47:56;;;;;;;15.30;5.47;;;;;;;20.72;38.78;98982.88;5074264;28;20195;-45
2021/01/23 10:50:22;;;;;;;13.73;6.10;;;;;;;20.71;38.98;98981.22;5075403;28;20215;-44
2021/01/23 10:52:48;;;;;;;12.77;6.00;;;;;;;20.68;39.10;98984.38;5075407;28;20179;-44
2021/01/23 10:55:14;;;;;;;13.00;5.57;;;;;;;20.66;39.04;98986.50;5075462;28;20192;-45
2021/01/23 10:57:40;;;;;;;10.87;5.37;;;;;;;20.62;39.00;98974.41;5075247;28;20200;-38
2021/01/23 11:00:07;;;;;;;8.57;4.90;;;;;;;20.61;38.81;98975.47;5075422;28;20199;-38
2021/01/23 11:02:36;;;;;;;7.03;4.50;;;;;;;20.57;38.23;98968.78;5074378;28;20320;-34
2021/01/23 11:05:03;;;;;;;6.77;4.20;;;;;;;20.53;38.19;98971.97;5075188;28;20187;-35
2021/01/23 11:07:29;;;;;;;7.00;3.93;;;;;;;20.51;38.02;98976.78;5074664;28;20653;-36
2021/01/23 11:09:55;;;;;;;5.33;3.40;;;;;;;20.47;37.63;98964.69;5066533;28;20356;-34
2021/01/23 11:12:21;;;;;;;12.20;4.03;;;;;;;20.44;37.41;98967.03;5074901;28;20286;-34
2021/01/23 11:14:47;;;;;;;9.97;3.80;;;;;;;20.42;37.38;98956.41;5074845;28;20183;-47
2021/01/23 11:17:13;;;;;;;9.07;3.97;;;;;;;20.41;36.98;98957.44;5073904;28;20369;-47
2021/01/23 11:19:39;;;;;;;8.03;3.13;;;;;;;20.43;36.90;98960.78;5074895;28;20222;-47
2021/01/23 11:22:05;;;;;;;10.57;3.30;;;;;;;20.44;36.98;98954.28;5075077;28;20625;-47
2021/01/23 11:24:31;;;;;;;7.23;2.60;;;;;;;20.46;36.79;98948.63;5074863;28;20648;-44
2021/01/23 11:26:57;;;;;;;11.33;3.00;;;;;;;20.46;37.05;98954.88;5074565;28;20208;-42
2021/01/23 11:29:24;;;;;;;5.57;3.03;;;;;;;20.49;36.97;98946.28;5073743;28;20179;-47
2021/01/23 11:31:50;;;;;;;8.27;2.70;;;;;;;20.48;37.17;98944.63;5074664;28;20182;-46
2021/01/23 11:34:16;;;;;;;6.77;2.63;;;;;;;20.50;37.06;98938.97;5074728;28;20215;-46
2021/01/23 11:36:42;;;;;;;7.30;2.60;;;;;;;20.50;37.27;98938.97;5073957;28;20756;-40
2021/01/23 11:39:08;;;;;;;6.80;2.53;;;;;;;20.51;37.13;98933.28;5067120;28;20201;-40